Aeroporto :
LOGIN :

Iscrizione | Disclaimer

   EN    FR    IT 

 










Sommario :    VFR   VFR Marginale   IFR   IFR Intensivo   IFR Molto Intensivo
Visibilità : 
Base nubi : 
>= 8 km
>= 3000ft
5 / 8 km
1000 / 3000 ft
1500m / 5 km
500 / 1000 ft
800 / 1500m
200 / 500 ft
< 800m
< 200 ft
Simboli :   Temporali  Nebbia  Neve Forte  Precipitazioni Forti  Vento > 20 kt
SIGMETs :   Varie  Temporali  Ghiacco  Turbolenza  Onda orograficha  Ceneri Vulcaniche






- Altitudine del aeroporto : 309 ft
- Codice IATA : FNI


LFTW - Nîmes Garons

ULTIMO METAR :
  • 162100Z AUTO VRB02KT 9000 NSC 04/03 Q1010

METARs OBSOLETI :
  • 162030Z AUTO VRB02KT CAVOK 03/02 Q1010
  • 162000Z AUTO 34001KT CAVOK 04/03 Q1010
  • 161930Z AUTO 29003KT 7000 NSC 04/03 Q1010
  • 161900Z AUTO 30003KT CAVOK 04/03 Q1010 TEMPO 1200 BR
  • 161830Z AUTO 29004KT CAVOK 04/03 Q1010 TEMPO 1200 BR

TAF TAF LFTW
Valido dal 16 a 15 ore il 17 a 15 ore UTC


161400Z 1615/1715 VRB05KT CAVOK
TEMPO 1618/1707 1200 BR
PROB30
TEMPO 1622/1704 0200 FG VV///



MetMap, La meteo Aeronautica in un colpo d'occhio ! - Copyright ORBIFLY Dicembre 2007 - Disclaimer

ORBIFLY MET'MAP TEAM :

Programmazione e sviluppo : Alexandra Zaïnal
Concezione e sviluppo : Baudouin d'Aumeries
Co-Programmazione e sviluppo : Marc-Olivier Méhu
Supporto tecnico e logistico : Manuel Goepfert
Aiuto per la traduzione : Arnaldo La Scala

Contatto : metmap@orbifly.com




FONTI E CREDITI :

   NOAA